createdAt,value
2018-03-25T09:51:53.617Z,4.90
2018-03-25T09:54:20.077Z,4.90
2018-03-25T09:56:46.680Z,4.80
2018-03-25T09:59:13.101Z,4.80
2018-03-25T10:01:45.723Z,4.70
2018-03-25T10:04:12.312Z,4.60
2018-03-25T10:06:38.879Z,4.90
2018-03-25T10:09:05.477Z,5.20
2018-03-25T10:11:31.972Z,5.50
2018-03-25T10:13:58.515Z,5.80
2018-03-25T10:18:53.485Z,5.90
2018-03-25T10:21:19.957Z,5.90
2018-03-25T10:23:46.483Z,5.80
2018-03-25T10:51:11.929Z,6.10
2018-03-25T10:53:38.820Z,6.00
2018-03-25T10:56:05.285Z,5.80
2018-03-25T11:25:40.855Z,6.70
2018-03-25T11:28:07.729Z,6.70
2018-03-25T11:30:34.272Z,6.90
2018-03-25T11:33:01.121Z,7.10
2018-03-25T11:35:27.591Z,7.30
2018-03-25T11:37:54.107Z,6.90
2018-03-25T11:40:20.717Z,6.60
2018-03-25T11:42:47.191Z,6.20
2018-03-25T11:45:13.716Z,5.90
2018-03-25T11:47:40.274Z,5.80
2018-03-25T11:50:06.809Z,5.80
2018-03-25T11:52:33.368Z,5.70
2018-03-25T11:54:59.940Z,5.60
2018-03-25T11:57:26.409Z,5.50
2018-03-25T11:59:53.000Z,5.30
2018-03-25T12:02:19.489Z,5.20
2018-03-25T12:07:15.070Z,5.20
2018-03-25T12:09:41.531Z,5.10
2018-03-25T12:12:08.184Z,5.10
2018-03-25T12:14:34.605Z,5.10
2018-03-25T12:17:03.391Z,5.00
2018-03-25T12:19:29.856Z,5.10
2018-03-25T12:21:56.352Z,5.00
2018-03-25T12:24:22.922Z,5.00
2018-03-25T12:26:49.496Z,5.00
2018-03-25T12:29:15.970Z,4.90
2018-03-25T12:31:42.556Z,5.00
2018-03-25T12:36:39.569Z,5.20
2018-03-25T12:39:06.153Z,5.30
2018-03-25T12:41:32.697Z,5.30
2018-03-25T12:43:59.176Z,5.40
2018-03-25T12:46:27.269Z,5.20
2018-03-25T12:48:54.094Z,5.00
2018-03-25T12:51:20.682Z,5.00
2018-03-25T12:53:47.144Z,5.00
2018-03-25T12:56:13.662Z,4.90
2018-03-25T12:58:40.295Z,4.80
2018-03-25T13:01:06.784Z,4.70
2018-03-25T13:03:37.604Z,4.70
2018-03-25T13:06:04.517Z,4.80
2018-03-25T13:08:30.918Z,4.80
2018-03-25T13:10:57.926Z,4.80
2018-03-25T13:13:24.381Z,4.80
2018-03-25T13:15:50.913Z,4.80
2018-03-25T13:18:17.506Z,4.70
2018-03-25T13:20:43.969Z,4.80
2018-03-25T13:23:10.489Z,5.00
2018-03-25T13:25:37.052Z,5.10
2018-03-25T13:28:03.948Z,5.20
2018-03-25T13:30:30.451Z,5.30
2018-03-25T13:32:57.951Z,5.40
2018-03-25T13:35:24.427Z,5.30
2018-03-25T13:37:50.998Z,5.10
2018-03-25T13:40:19.147Z,5.00
2018-03-25T13:42:45.862Z,5.00
2018-03-25T13:45:12.464Z,5.10
2018-03-25T13:47:38.990Z,5.00
2018-03-25T13:50:06.420Z,5.00
2018-03-25T13:52:33.226Z,5.10
2018-03-25T13:55:00.737Z,5.30
2018-03-25T13:57:29.078Z,5.40
2018-03-25T13:59:55.588Z,5.50
2018-03-25T14:02:23.162Z,5.50
2018-03-25T14:04:50.556Z,5.60
2018-03-25T14:07:17.348Z,5.50
2018-03-25T14:09:43.945Z,5.60
2018-03-25T14:12:10.415Z,5.70
2018-03-25T14:14:37.329Z,5.80
2018-03-25T14:17:03.926Z,5.80
2018-03-25T14:19:30.648Z,5.50
2018-03-25T14:21:57.948Z,5.40
2018-03-25T14:24:25.054Z,5.10
2018-03-25T14:26:51.519Z,5.00
2018-03-25T14:29:18.424Z,4.90
2018-03-25T14:31:45.835Z,4.70
2018-03-25T14:34:12.312Z,4.70
2018-03-25T14:36:39.173Z,4.60
2018-03-25T14:39:06.177Z,4.60
2018-03-25T14:41:32.845Z,4.70
2018-03-25T14:43:59.668Z,4.70
2018-03-25T14:46:26.408Z,4.70
2018-03-25T14:48:54.022Z,4.80
2018-03-25T14:51:21.425Z,4.80
2018-03-25T14:53:47.816Z,4.70
2018-03-25T14:56:15.100Z,4.70
2018-03-25T14:58:41.729Z,4.60
2018-03-25T15:01:08.182Z,4.60
2018-03-25T15:03:34.723Z,4.50
2018-03-25T15:06:01.286Z,4.20
2018-03-25T15:08:27.832Z,4.30
2018-03-25T15:13:43.753Z,4.20
2018-03-25T15:16:10.766Z,4.20
2018-03-25T15:18:37.573Z,4.20
2018-03-25T15:21:04.231Z,4.20
2018-03-25T15:23:30.652Z,4.20
2018-03-25T15:25:57.245Z,4.20
2018-03-25T15:28:23.716Z,4.10
2018-03-25T15:30:50.376Z,4.00
2018-03-25T15:33:16.775Z,4.00
2018-03-25T15:35:43.392Z,3.90
2018-03-25T15:38:09.891Z,3.80
2018-03-25T15:40:36.368Z,3.90
2018-03-25T15:43:03.016Z,3.80
2018-03-25T15:45:29.464Z,3.80
2018-03-25T15:47:56.056Z,3.80
2018-03-25T15:50:23.464Z,3.90
2018-03-25T15:52:50.010Z,3.70
2018-03-25T15:55:16.846Z,3.70
2018-03-25T15:57:43.680Z,3.70
2018-03-25T16:00:11.164Z,3.70
2018-03-25T16:02:37.690Z,3.70
2018-03-25T16:05:04.326Z,3.70
2018-03-25T16:07:30.752Z,3.60
2018-03-25T16:09:57.303Z,3.50
2018-03-25T16:12:23.872Z,3.60
2018-03-25T16:14:50.437Z,3.50
2018-03-25T16:17:17.121Z,3.40
2018-03-25T16:19:43.726Z,3.40
2018-03-25T16:22:10.276Z,3.40
2018-03-25T16:24:36.862Z,3.30
2018-03-25T16:27:03.409Z,3.30
2018-03-25T16:29:29.857Z,3.20
2018-03-25T16:31:56.402Z,3.10
2018-03-25T16:34:22.948Z,3.20
2018-03-25T16:36:49.521Z,3.30
2018-03-25T16:39:16.324Z,3.20
2018-03-25T16:41:42.830Z,3.20
2018-03-25T16:44:09.377Z,3.20
2018-03-25T16:46:35.916Z,3.40
2018-03-25T16:49:02.528Z,3.50
2018-03-25T16:51:29.677Z,3.40
2018-03-25T16:53:56.127Z,3.30
2018-03-25T16:56:22.545Z,3.30
2018-03-25T16:58:49.403Z,3.20
2018-03-25T17:01:17.596Z,3.30
2018-03-25T17:03:44.116Z,3.30
2018-03-25T17:06:10.716Z,3.30
2018-03-25T17:08:37.144Z,3.20
2018-03-25T17:11:04.121Z,3.30
2018-03-25T17:13:31.793Z,3.50
2018-03-25T17:15:58.327Z,3.40
2018-03-25T17:18:24.868Z,3.30
2018-03-25T17:20:51.469Z,3.40
2018-03-25T17:23:17.959Z,3.30
2018-03-25T17:25:44.465Z,3.40
2018-03-25T17:28:11.022Z,3.30
2018-03-25T17:30:37.558Z,3.30
2018-03-25T17:33:04.347Z,3.30
2018-03-25T17:35:30.915Z,3.20
2018-03-25T17:37:57.748Z,3.20
2018-03-25T17:40:24.148Z,3.20
2018-03-25T17:42:51.140Z,3.20
2018-03-25T17:45:18.042Z,3.20
2018-03-25T17:47:44.580Z,3.30
2018-03-25T17:50:11.043Z,3.30
2018-03-25T17:52:37.590Z,3.20
2018-03-25T17:55:04.136Z,3.20
2018-03-25T17:57:32.813Z,3.30
2018-03-25T17:59:59.400Z,3.20
2018-03-25T18:02:25.868Z,3.40
2018-03-25T18:04:52.492Z,3.40
2018-03-25T18:07:19.569Z,3.30
2018-03-25T18:09:46.208Z,3.30
2018-03-25T18:12:12.685Z,3.20
2018-03-25T18:14:39.214Z,3.20
2018-03-25T18:17:05.752Z,3.20
2018-03-25T18:19:32.312Z,3.10
2018-03-25T18:21:58.808Z,3.20
2018-03-25T18:24:25.411Z,3.30
2018-03-25T18:26:51.904Z,3.30
2018-03-25T18:29:18.372Z,3.30
2018-03-25T18:31:45.278Z,3.40
2018-03-25T18:34:11.779Z,3.20
2018-03-25T18:36:39.270Z,3.30
2018-03-25T18:39:06.004Z,3.30
2018-03-25T18:41:32.595Z,3.40
2018-03-25T18:43:59.136Z,3.40
2018-03-25T18:46:25.538Z,3.40
2018-03-25T18:48:52.575Z,3.60
2018-03-25T18:51:19.660Z,3.50
2018-03-25T18:53:46.553Z,3.60
2018-03-25T18:56:13.052Z,3.60
2018-03-25T18:58:39.628Z,3.60
2018-03-25T19:01:06.181Z,3.70
2018-03-25T19:03:32.703Z,3.70
2018-03-25T19:05:59.100Z,3.60
2018-03-25T19:08:26.072Z,3.60
2018-03-25T19:10:53.356Z,3.60
2018-03-25T19:13:20.292Z,3.60
2018-03-25T19:15:46.839Z,3.60
2018-03-25T19:18:13.393Z,3.70
2018-03-25T19:20:39.920Z,3.70
2018-03-25T19:23:06.757Z,3.80
2018-03-25T19:25:33.304Z,3.90
2018-03-25T19:27:59.902Z,3.90
2018-03-25T19:30:26.370Z,3.90
2018-03-25T19:32:53.031Z,3.90
2018-03-25T19:35:20.052Z,3.90
2018-03-25T19:37:46.644Z,4.00
2018-03-25T19:40:13.094Z,4.10
2018-03-25T19:42:39.728Z,3.90
2018-03-25T19:45:06.232Z,3.80
2018-03-25T19:47:32.757Z,3.90
2018-03-25T19:49:59.343Z,3.90
2018-03-25T19:52:25.818Z,4.00
2018-03-25T19:54:52.400Z,4.00
2018-03-25T19:57:20.460Z,4.00
2018-03-25T19:59:46.945Z,4.10
2018-03-25T20:02:13.480Z,4.10
2018-03-25T20:04:40.382Z,4.00
2018-03-25T20:07:06.851Z,3.90
2018-03-25T20:09:33.393Z,3.90
2018-03-25T20:12:00.004Z,4.00
2018-03-25T20:14:27.366Z,4.00
2018-03-25T20:16:54.019Z,4.00
2018-03-25T20:19:20.527Z,4.00
2018-03-25T20:21:46.978Z,4.00
2018-03-25T20:24:13.425Z,4.00
2018-03-25T20:26:40.062Z,4.10
2018-03-25T20:29:06.668Z,4.00
2018-03-25T20:31:33.130Z,4.10
2018-03-25T20:33:59.714Z,4.10
2018-03-25T20:36:26.498Z,4.10
2018-03-25T20:38:53.463Z,4.10
2018-03-25T20:41:19.957Z,4.10
2018-03-25T20:43:47.404Z,4.10
2018-03-25T20:46:13.861Z,4.10
2018-03-25T20:48:42.551Z,4.20
2018-03-25T20:51:09.110Z,4.10
2018-03-25T20:53:35.705Z,4.20
2018-03-25T20:56:03.210Z,4.00
2018-03-25T20:58:29.985Z,4.00
2018-03-25T21:00:56.859Z,3.90
2018-03-25T21:03:23.344Z,3.90
2018-03-25T21:05:50.148Z,3.80
2018-03-25T21:08:16.620Z,4.00
2018-03-25T21:10:43.211Z,3.90
2018-03-25T21:13:11.927Z,3.90
2018-03-25T21:15:39.656Z,3.90
2018-03-25T21:18:06.609Z,3.80
2018-03-25T21:20:33.012Z,3.70
2018-03-25T21:22:59.953Z,3.80
2018-03-25T21:25:26.477Z,3.80
2018-03-25T21:27:53.009Z,3.90
2018-03-25T21:30:19.508Z,3.90
2018-03-25T21:32:46.021Z,3.90
2018-03-25T21:35:12.670Z,3.80
2018-03-25T21:37:39.700Z,3.80
2018-03-25T21:40:06.248Z,3.80
2018-03-25T21:42:32.636Z,3.80
2018-03-25T21:44:59.934Z,3.80
2018-03-25T21:47:27.460Z,3.90
2018-03-25T21:49:53.912Z,3.70
2018-03-25T21:52:20.456Z,3.80
2018-03-25T21:54:47.288Z,3.90
2018-03-25T21:57:13.913Z,3.80
2018-03-25T21:59:40.416Z,3.70
2018-03-25T22:02:06.944Z,3.70
2018-03-25T22:04:33.441Z,3.80
2018-03-25T22:07:00.032Z,3.90
2018-03-25T22:09:28.051Z,3.90
2018-03-25T22:11:54.584Z,3.90
2018-03-25T22:14:21.163Z,4.00
2018-03-25T22:16:47.692Z,4.00
2018-03-25T22:19:14.192Z,4.10
2018-03-25T22:21:40.720Z,4.10
2018-03-25T22:24:07.249Z,4.10
2018-03-25T22:26:33.780Z,4.10
2018-03-25T22:29:00.312Z,4.10
2018-03-25T22:31:26.901Z,4.20
2018-03-25T22:33:53.392Z,4.10
2018-03-25T22:36:19.937Z,4.20
2018-03-25T22:38:46.477Z,4.10
2018-03-25T22:41:12.987Z,4.10
2018-03-25T22:43:39.677Z,4.20
2018-03-25T22:46:06.059Z,4.10
2018-03-25T22:48:32.661Z,4.00
2018-03-25T22:50:59.202Z,4.10
2018-03-25T22:53:25.795Z,4.20
2018-03-25T22:55:52.294Z,4.10
2018-03-25T22:58:18.804Z,4.20
2018-03-25T23:00:45.381Z,4.20
2018-03-25T23:03:12.464Z,4.20
2018-03-25T23:05:39.329Z,4.20
2018-03-25T23:08:05.806Z,4.10
2018-03-25T23:10:32.744Z,4.20
2018-03-25T23:13:00.487Z,4.20
2018-03-25T23:15:26.975Z,4.20
2018-03-25T23:17:53.476Z,4.20
2018-03-25T23:20:19.937Z,4.20
2018-03-25T23:22:46.868Z,4.10
2018-03-25T23:25:15.279Z,4.10
2018-03-25T23:27:41.840Z,4.30
2018-03-25T23:30:08.365Z,4.30
2018-03-25T23:32:34.835Z,4.30
2018-03-25T23:35:01.381Z,4.40
2018-03-25T23:37:28.276Z,4.30
2018-03-25T23:39:54.744Z,4.30
2018-03-25T23:42:21.132Z,4.30
2018-03-25T23:44:47.584Z,4.30
2018-03-25T23:47:14.053Z,4.30
2018-03-25T23:49:40.906Z,4.40
2018-03-25T23:52:07.304Z,4.40
2018-03-25T23:54:34.340Z,4.50
2018-03-25T23:57:02.041Z,4.50
2018-03-25T23:59:28.584Z,4.70
